sensor_id;sensor_type;location;lat;lon;timestamp;temperature;humidity
2327;DHT22;1174;51.588;7.328;2023-04-01T00:00:59;10.60;99.90
2327;DHT22;1174;51.588;7.328;2023-04-01T00:03:28;10.60;99.90
2327;DHT22;1174;51.588;7.328;2023-04-01T00:05:55;10.70;99.90
2327;DHT22;1174;51.588;7.328;2023-04-01T00:08:23;10.60;99.90
2327;DHT22;1174;51.588;7.328;2023-04-01T00:10:51;10.60;99.90
2327;DHT22;1174;51.588;7.328;2023-04-01T00:13:19;10.60;99.90
2327;DHT22;1174;51.588;7.328;2023-04-01T00:15:46;10.50;99.90
2327;DHT22;1174;51.588;7.328;2023-04-01T00:18:14;10.50;99.90
2327;DHT22;1174;51.588;7.328;2023-04-01T00:20:43;10.50;99.90
2327;DHT22;1174;51.588;7.328;2023-04-01T00:23:11;10.60;99.90
2327;DHT22;1174;51.588;7.328;2023-04-01T00:25:38;10.50;99.90
2327;DHT22;1174;51.588;7.328;2023-04-01T00:28:08;10.50;99.90
2327;DHT22;1174;51.588;7.328;2023-04-01T00:30:35;10.50;99.90
2327;DHT22;1174;51.588;7.328;2023-04-01T00:33:03;10.40;99.90
2327;DHT22;1174;51.588;7.328;2023-04-01T00:35:30;10.40;99.90
2327;DHT22;1174;51.588;7.328;2023-04-01T00:37:58;10.30;99.90
2327;DHT22;1174;51.588;7.328;2023-04-01T00:40:28;10.40;99.90
2327;DHT22;1174;51.588;7.328;2023-04-01T00:42:56;10.40;99.90
2327;DHT22;1174;51.588;7.328;2023-04-01T00:45:33;10.40;99.90
2327;DHT22;1174;51.588;7.328;2023-04-01T00:48:03;10.30;99.90
2327;DHT22;1174;51.588;7.328;2023-04-01T00:50:32;10.30;99.90
2327;DHT22;1174;51.588;7.328;2023-04-01T00:53:01;10.30;99.90
2327;DHT22;1174;51.588;7.328;2023-04-01T00:55:32;10.20;99.90
2327;DHT22;1174;51.588;7.328;2023-04-01T00:58:02;10.20;99.90
2327;DHT22;1174;51.588;7.328;2023-04-01T01:00:33;10.20;99.90
2327;DHT22;1174;51.588;7.328;2023-04-01T01:03:00;10.20;99.90
2327;DHT22;1174;51.588;7.328;2023-04-01T01:05:38;10.20;99.90
2327;DHT22;1174;51.588;7.328;2023-04-01T01:08:16;10.10;99.90
2327;DHT22;1174;51.588;7.328;2023-04-01T01:10:49;10.20;99.90
2327;DHT22;1174;51.588;7.328;2023-04-01T01:13:20;10.20;99.90
2327;DHT22;1174;51.588;7.328;2023-04-01T01:15:57;10.10;99.90
2327;DHT22;1174;51.588;7.328;2023-04-01T01:18:33;10.20;99.90
2327;DHT22;1174;51.588;7.328;2023-04-01T01:21:25;10.20;99.90
2327;DHT22;1174;51.588;7.328;2023-04-01T01:24:28;10.20;99.90
2327;DHT22;1174;51.588;7.328;2023-04-01T01:27:01;10.20;99.90
2327;DHT22;1174;51.588;7.328;2023-04-01T01:29:44;10.20;99.90
2327;DHT22;1174;51.588;7.328;2023-04-01T01:32:32;10.20;99.90
2327;DHT22;1174;51.588;7.328;2023-04-01T01:35:27;10.20;99.90
2327;DHT22;1174;51.588;7.328;2023-04-01T01:38:00;10.30;99.90
2327;DHT22;1174;51.588;7.328;2023-04-01T01:40:29;10.20;99.90
2327;DHT22;1174;51.588;7.328;2023-04-01T01:43:00;10.20;99.90
2327;DHT22;1174;51.588;7.328;2023-04-01T01:45:33;10.20;99.90
2327;DHT22;1174;51.588;7.328;2023-04-01T01:48:02;10.20;99.90
2327;DHT22;1174;51.588;7.328;2023-04-01T01:50:31;10.20;99.90
2327;DHT22;1174;51.588;7.328;2023-04-01T01:53:05;10.20;99.90
2327;DHT22;1174;51.588;7.328;2023-04-01T01:55:34;10.20;99.90
2327;DHT22;1174;51.588;7.328;2023-04-01T01:58:06;10.20;99.90
2327;DHT22;1174;51.588;7.328;2023-04-01T02:00:35;10.20;99.90
2327;DHT22;1174;51.588;7.328;2023-04-01T02:03:03;10.10;99.90
2327;DHT22;1174;51.588;7.328;2023-04-01T02:05:32;10.10;99.90
2327;DHT22;1174;51.588;7.328;2023-04-01T02:08:02;10.10;99.90
2327;DHT22;1174;51.588;7.328;2023-04-01T02:10:35;10.10;99.90
2327;DHT22;1174;51.588;7.328;2023-04-01T02:13:07;10.10;99.90
2327;DHT22;1174;51.588;7.328;2023-04-01T02:15:40;10.10;99.90
2327;DHT22;1174;51.588;7.328;2023-04-01T02:18:09;10.10;99.90
2327;DHT22;1174;51.588;7.328;2023-04-01T02:20:39;10.00;99.90
2327;DHT22;1174;51.588;7.328;2023-04-01T02:23:07;10.00;99.90
2327;DHT22;1174;51.588;7.328;2023-04-01T02:25:36;10.00;99.90
2327;DHT22;1174;51.588;7.328;2023-04-01T02:28:06;10.10;99.90
2327;DHT22;1174;51.588;7.328;2023-04-01T02:30:35;10.00;99.90
2327;DHT22;1174;51.588;7.328;2023-04-01T02:33:05;10.10;99.90
2327;DHT22;1174;51.588;7.328;2023-04-01T02:35:34;10.00;99.90
2327;DHT22;1174;51.588;7.328;2023-04-01T02:38:03;10.00;99.90
2327;DHT22;1174;51.588;7.328;2023-04-01T02:40:42;10.00;99.90
2327;DHT22;1174;51.588;7.328;2023-04-01T02:43:09;10.00;99.90
2327;DHT22;1174;51.588;7.328;2023-04-01T02:45:36;9.90;99.90
2327;DHT22;1174;51.588;7.328;2023-04-01T02:48:04;9.90;99.90
2327;DHT22;1174;51.588;7.328;2023-04-01T02:50:32;10.00;99.90
2327;DHT22;1174;51.588;7.328;2023-04-01T02:53:00;10.00;99.90
2327;DHT22;1174;51.588;7.328;2023-04-01T02:55:29;9.90;99.90
2327;DHT22;1174;51.588;7.328;2023-04-01T02:57:56;9.90;99.90
2327;DHT22;1174;51.588;7.328;2023-04-01T03:00:23;10.00;99.90
2327;DHT22;1174;51.588;7.328;2023-04-01T03:02:51;10.00;99.90
2327;DHT22;1174;51.588;7.328;2023-04-01T03:05:18;10.00;99.90
2327;DHT22;1174;51.588;7.328;2023-04-01T03:07:45;10.00;99.90
2327;DHT22;1174;51.588;7.328;2023-04-01T03:10:12;10.00;99.90
2327;DHT22;1174;51.588;7.328;2023-04-01T03:12:40;10.00;99.90
2327;DHT22;1174;51.588;7.328;2023-04-01T03:15:10;10.00;99.90
2327;DHT22;1174;51.588;7.328;2023-04-01T03:17:37;10.00;99.90
2327;DHT22;1174;51.588;7.328;2023-04-01T03:20:05;9.90;99.90
2327;DHT22;1174;51.588;7.328;2023-04-01T03:22:34;10.00;99.90
2327;DHT22;1174;51.588;7.328;2023-04-01T03:25:01;9.90;99.90
2327;DHT22;1174;51.588;7.328;2023-04-01T03:27:28;9.90;99.90
2327;DHT22;1174;51.588;7.328;2023-04-01T03:29:56;9.90;99.90
2327;DHT22;1174;51.588;7.328;2023-04-01T03:32:23;9.90;99.90
2327;DHT22;1174;51.588;7.328;2023-04-01T03:34:50;9.90;99.90
2327;DHT22;1174;51.588;7.328;2023-04-01T03:37:17;10.00;99.90
2327;DHT22;1174;51.588;7.328;2023-04-01T03:39:44;9.90;99.90
2327;DHT22;1174;51.588;7.328;2023-04-01T03:42:11;9.90;99.90
2327;DHT22;1174;51.588;7.328;2023-04-01T03:44:38;9.90;99.90
2327;DHT22;1174;51.588;7.328;2023-04-01T03:47:06;9.90;99.90
2327;DHT22;1174;51.588;7.328;2023-04-01T03:49:34;10.00;99.90
2327;DHT22;1174;51.588;7.328;2023-04-01T03:52:01;10.00;99.90
2327;DHT22;1174;51.588;7.328;2023-04-01T03:54:28;10.00;99.90
2327;DHT22;1174;51.588;7.328;2023-04-01T03:56:55;10.00;99.90
2327;DHT22;1174;51.588;7.328;2023-04-01T03:59:23;10.00;99.90
2327;DHT22;1174;51.588;7.328;2023-04-01T04:01:50;10.00;99.90
2327;DHT22;1174;51.588;7.328;2023-04-01T04:04:18;10.00;99.90
2327;DHT22;1174;51.588;7.328;2023-04-01T04:06:45;10.00;99.90
2327;DHT22;1174;51.588;7.328;2023-04-01T04:09:12;10.00;99.90
2327;DHT22;1174;51.588;7.328;2023-04-01T04:11:39;9.90;99.90
2327;DHT22;1174;51.588;7.328;2023-04-01T04:14:06;9.90;99.90
2327;DHT22;1174;51.588;7.328;2023-04-01T04:16:35;9.90;99.90
2327;DHT22;1174;51.588;7.328;2023-04-01T04:19:03;10.00;99.90
2327;DHT22;1174;51.588;7.328;2023-04-01T04:21:31;9.90;99.90
2327;DHT22;1174;51.588;7.328;2023-04-01T04:23:59;9.90;99.90
2327;DHT22;1174;51.588;7.328;2023-04-01T04:26:27;9.90;99.90
2327;DHT22;1174;51.588;7.328;2023-04-01T04:28:55;9.90;99.90
2327;DHT22;1174;51.588;7.328;2023-04-01T04:31:23;10.00;99.90
2327;DHT22;1174;51.588;7.328;2023-04-01T04:33:51;10.00;99.90
2327;DHT22;1174;51.588;7.328;2023-04-01T04:36:19;10.00;99.90
2327;DHT22;1174;51.588;7.328;2023-04-01T04:38:47;10.00;99.90
2327;DHT22;1174;51.588;7.328;2023-04-01T04:41:15;10.10;99.90
2327;DHT22;1174;51.588;7.328;2023-04-01T04:43:49;10.00;99.90
2327;DHT22;1174;51.588;7.328;2023-04-01T04:46:16;10.10;99.90
2327;DHT22;1174;51.588;7.328;2023-04-01T04:48:44;10.00;99.90
2327;DHT22;1174;51.588;7.328;2023-04-01T04:51:14;10.10;99.90
2327;DHT22;1174;51.588;7.328;2023-04-01T04:53:42;10.10;99.90
2327;DHT22;1174;51.588;7.328;2023-04-01T04:56:10;10.00;99.90
2327;DHT22;1174;51.588;7.328;2023-04-01T04:58:37;10.00;99.90
2327;DHT22;1174;51.588;7.328;2023-04-01T05:01:09;10.00;99.90
2327;DHT22;1174;51.588;7.328;2023-04-01T05:03:37;10.00;99.90
2327;DHT22;1174;51.588;7.328;2023-04-01T05:06:05;10.10;99.90
2327;DHT22;1174;51.588;7.328;2023-04-01T05:08:32;10.10;99.90
2327;DHT22;1174;51.588;7.328;2023-04-01T05:10:59;10.00;99.90
2327;DHT22;1174;51.588;7.328;2023-04-01T05:13:28;10.00;99.90
2327;DHT22;1174;51.588;7.328;2023-04-01T05:15:55;10.10;99.90
2327;DHT22;1174;51.588;7.328;2023-04-01T05:18:24;10.00;99.90
2327;DHT22;1174;51.588;7.328;2023-04-01T05:20:52;10.10;99.90
2327;DHT22;1174;51.588;7.328;2023-04-01T05:23:21;10.10;99.90
2327;DHT22;1174;51.588;7.328;2023-04-01T05:25:49;10.10;99.90
2327;DHT22;1174;51.588;7.328;2023-04-01T05:28:16;10.10;99.90
2327;DHT22;1174;51.588;7.328;2023-04-01T05:30:45;10.10;99.90
2327;DHT22;1174;51.588;7.328;2023-04-01T05:33:13;10.10;99.90
2327;DHT22;1174;51.588;7.328;2023-04-01T05:35:40;10.10;99.90
2327;DHT22;1174;51.588;7.328;2023-04-01T05:38:07;10.20;99.90
2327;DHT22;1174;51.588;7.328;2023-04-01T05:40:34;10.20;99.90
2327;DHT22;1174;51.588;7.328;2023-04-01T05:43:01;10.20;99.90
2327;DHT22;1174;51.588;7.328;2023-04-01T05:45:28;10.20;99.90
2327;DHT22;1174;51.588;7.328;2023-04-01T05:47:57;10.30;99.90
2327;DHT22;1174;51.588;7.328;2023-04-01T05:50:25;10.30;99.90
2327;DHT22;1174;51.588;7.328;2023-04-01T05:52:52;10.40;99.90
2327;DHT22;1174;51.588;7.328;2023-04-01T05:55:19;10.40;99.90
2327;DHT22;1174;51.588;7.328;2023-04-01T05:57:46;10.40;99.90
2327;DHT22;1174;51.588;7.328;2023-04-01T06:00:16;10.50;99.90
2327;DHT22;1174;51.588;7.328;2023-04-01T06:02:45;10.50;99.90
2327;DHT22;1174;51.588;7.328;2023-04-01T06:05:18;10.40;99.90
2327;DHT22;1174;51.588;7.328;2023-04-01T06:07:45;10.40;99.90
2327;DHT22;1174;51.588;7.328;2023-04-01T06:10:14;10.40;99.90
2327;DHT22;1174;51.588;7.328;2023-04-01T06:12:53;10.30;99.90
2327;DHT22;1174;51.588;7.328;2023-04-01T06:15:35;10.30;99.90
2327;DHT22;1174;51.588;7.328;2023-04-01T06:24:22;10.40;99.90
2327;DHT22;1174;51.588;7.328;2023-04-01T06:26:58;10.40;99.90
2327;DHT22;1174;51.588;7.328;2023-04-01T06:29:54;10.50;99.90
2327;DHT22;1174;51.588;7.328;2023-04-01T06:32:49;10.50;99.90
2327;DHT22;1174;51.588;7.328;2023-04-01T06:38:25;10.60;99.90
2327;DHT22;1174;51.588;7.328;2023-04-01T06:41:23;10.60;99.90
2327;DHT22;1174;51.588;7.328;2023-04-01T06:43:59;10.60;99.90
2327;DHT22;1174;51.588;7.328;2023-04-01T06:46:38;10.60;99.90
2327;DHT22;1174;51.588;7.328;2023-04-01T06:49:24;10.60;99.90
2327;DHT22;1174;51.588;7.328;2023-04-01T06:51:59;10.50;99.90
2327;DHT22;1174;51.588;7.328;2023-04-01T06:54:33;10.50;99.90
2327;DHT22;1174;51.588;7.328;2023-04-01T06:57:12;10.50;99.90
2327;DHT22;1174;51.588;7.328;2023-04-01T06:59:46;10.40;99.90
2327;DHT22;1174;51.588;7.328;2023-04-01T07:02:22;10.40;99.90
2327;DHT22;1174;51.588;7.328;2023-04-01T07:04:53;10.40;99.90
2327;DHT22;1174;51.588;7.328;2023-04-01T07:07:27;10.50;99.90
2327;DHT22;1174;51.588;7.328;2023-04-01T07:09:59;10.40;99.90
2327;DHT22;1174;51.588;7.328;2023-04-01T07:12:36;10.50;99.90
2327;DHT22;1174;51.588;7.328;2023-04-01T07:15:13;10.50;99.90
2327;DHT22;1174;51.588;7.328;2023-04-01T07:17:44;10.60;99.90
2327;DHT22;1174;51.588;7.328;2023-04-01T07:20:17;10.60;99.90
2327;DHT22;1174;51.588;7.328;2023-04-01T07:22:49;10.60;99.90
2327;DHT22;1174;51.588;7.328;2023-04-01T07:25:20;10.50;99.90
2327;DHT22;1174;51.588;7.328;2023-04-01T07:27:47;10.60;99.90
2327;DHT22;1174;51.588;7.328;2023-04-01T07:30:18;10.50;99.90
2327;DHT22;1174;51.588;7.328;2023-04-01T07:32:47;10.50;99.90
2327;DHT22;1174;51.588;7.328;2023-04-01T07:35:23;10.60;99.90
2327;DHT22;1174;51.588;7.328;2023-04-01T07:38:02;10.60;99.90
2327;DHT22;1174;51.588;7.328;2023-04-01T07:40:39;10.70;99.90
2327;DHT22;1174;51.588;7.328;2023-04-01T07:43:46;10.60;99.90
2327;DHT22;1174;51.588;7.328;2023-04-01T07:46:21;10.60;99.90
2327;DHT22;1174;51.588;7.328;2023-04-01T07:48:55;10.70;99.90
2327;DHT22;1174;51.588;7.328;2023-04-01T07:51:29;10.70;99.90
2327;DHT22;1174;51.588;7.328;2023-04-01T07:54:02;10.70;99.90
2327;DHT22;1174;51.588;7.328;2023-04-01T07:56:40;10.80;99.90
2327;DHT22;1174;51.588;7.328;2023-04-01T07:59:17;10.80;99.90
2327;DHT22;1174;51.588;7.328;2023-04-01T08:01:52;11.00;99.90
2327;DHT22;1174;51.588;7.328;2023-04-01T08:04:42;11.00;99.90
2327;DHT22;1174;51.588;7.328;2023-04-01T08:07:16;11.00;99.90
2327;DHT22;1174;51.588;7.328;2023-04-01T08:09:50;11.00;99.90
2327;DHT22;1174;51.588;7.328;2023-04-01T08:12:30;11.00;99.90
2327;DHT22;1174;51.588;7.328;2023-04-01T08:15:14;11.00;99.90
2327;DHT22;1174;51.588;7.328;2023-04-01T08:17:53;11.00;99.90
2327;DHT22;1174;51.588;7.328;2023-04-01T08:20:28;11.00;99.90
2327;DHT22;1174;51.588;7.328;2023-04-01T08:23:02;10.90;99.90
2327;DHT22;1174;51.588;7.328;2023-04-01T08:25:32;11.00;99.90
2327;DHT22;1174;51.588;7.328;2023-04-01T08:28:11;11.10;99.90
2327;DHT22;1174;51.588;7.328;2023-04-01T08:30:43;11.00;99.90
2327;DHT22;1174;51.588;7.328;2023-04-01T08:33:13;11.10;99.90
2327;DHT22;1174;51.588;7.328;2023-04-01T08:35:47;11.20;99.90
2327;DHT22;1174;51.588;7.328;2023-04-01T08:38:18;11.10;99.90
2327;DHT22;1174;51.588;7.328;2023-04-01T08:40:57;10.90;99.90
2327;DHT22;1174;51.588;7.328;2023-04-01T08:46:41;11.00;99.90
2327;DHT22;1174;51.588;7.328;2023-04-01T08:49:22;11.00;99.90
2327;DHT22;1174;51.588;7.328;2023-04-01T08:52:15;10.80;99.90
2327;DHT22;1174;51.588;7.328;2023-04-01T08:55:04;10.80;99.90
2327;DHT22;1174;51.588;7.328;2023-04-01T08:57:49;10.90;99.90
2327;DHT22;1174;51.588;7.328;2023-04-01T09:00:25;10.90;99.90
2327;DHT22;1174;51.588;7.328;2023-04-01T09:03:13;10.90;99.90
2327;DHT22;1174;51.588;7.328;2023-04-01T09:06:17;10.90;99.90
2327;DHT22;1174;51.588;7.328;2023-04-01T09:08:57;11.00;99.90
2327;DHT22;1174;51.588;7.328;2023-04-01T09:11:38;11.10;99.90
2327;DHT22;1174;51.588;7.328;2023-04-01T09:14:27;11.10;99.90
2327;DHT22;1174;51.588;7.328;2023-04-01T09:17:14;11.10;99.90
2327;DHT22;1174;51.588;7.328;2023-04-01T09:20:08;11.10;99.90
2327;DHT22;1174;51.588;7.328;2023-04-01T09:22:55;11.00;99.90
2327;DHT22;1174;51.588;7.328;2023-04-01T09:25:51;11.00;99.90
2327;DHT22;1174;51.588;7.328;2023-04-01T09:28:23;11.00;99.90
2327;DHT22;1174;51.588;7.328;2023-04-01T09:37:08;11.00;99.90
2327;DHT22;1174;51.588;7.328;2023-04-01T09:39:47;10.90;99.90
2327;DHT22;1174;51.588;7.328;2023-04-01T09:42:43;10.80;99.90
2327;DHT22;1174;51.588;7.328;2023-04-01T09:45:25;10.90;99.90
2327;DHT22;1174;51.588;7.328;2023-04-01T09:48:14;10.90;99.90
2327;DHT22;1174;51.588;7.328;2023-04-01T09:50:52;11.00;99.90
2327;DHT22;1174;51.588;7.328;2023-04-01T09:53:36;11.00;99.90
2327;DHT22;1174;51.588;7.328;2023-04-01T09:59:45;11.00;99.90
2327;DHT22;1174;51.588;7.328;2023-04-01T10:05:50;11.20;99.90
2327;DHT22;1174;51.588;7.328;2023-04-01T10:08:59;11.20;99.90
2327;DHT22;1174;51.588;7.328;2023-04-01T10:11:58;11.10;99.90
2327;DHT22;1174;51.588;7.328;2023-04-01T10:18:12;11.30;99.90
2327;DHT22;1174;51.588;7.328;2023-04-01T10:21:02;11.40;99.90
2327;DHT22;1174;51.588;7.328;2023-04-01T10:23:44;11.40;99.90
2327;DHT22;1174;51.588;7.328;2023-04-01T10:29:49;11.50;99.90
2327;DHT22;1174;51.588;7.328;2023-04-01T10:33:07;11.70;99.90
2327;DHT22;1174;51.588;7.328;2023-04-01T10:39:33;11.90;99.90
2327;DHT22;1174;51.588;7.328;2023-04-01T10:51:16;11.50;99.90
2327;DHT22;1174;51.588;7.328;2023-04-01T10:54:09;11.60;99.90
2327;DHT22;1174;51.588;7.328;2023-04-01T10:56:47;11.50;99.90
2327;DHT22;1174;51.588;7.328;2023-04-01T10:59:44;11.40;99.90
2327;DHT22;1174;51.588;7.328;2023-04-01T11:08:53;11.40;99.90
2327;DHT22;1174;51.588;7.328;2023-04-01T11:20:59;11.60;99.90
2327;DHT22;1174;51.588;7.328;2023-04-01T11:23:47;11.80;99.90
2327;DHT22;1174;51.588;7.328;2023-04-01T11:26:27;11.70;99.90
2327;DHT22;1174;51.588;7.328;2023-04-01T11:32:09;11.70;99.90
2327;DHT22;1174;51.588;7.328;2023-04-01T11:34:50;11.70;99.90
2327;DHT22;1174;51.588;7.328;2023-04-01T11:37:30;11.80;99.90
2327;DHT22;1174;51.588;7.328;2023-04-01T11:40:08;11.80;99.90
2327;DHT22;1174;51.588;7.328;2023-04-01T11:42:43;11.80;99.90
2327;DHT22;1174;51.588;7.328;2023-04-01T11:45:25;11.90;99.90
2327;DHT22;1174;51.588;7.328;2023-04-01T11:48:27;11.80;99.90
2327;DHT22;1174;51.588;7.328;2023-04-01T11:51:20;11.80;99.90
2327;DHT22;1174;51.588;7.328;2023-04-01T11:53:59;11.80;99.90
2327;DHT22;1174;51.588;7.328;2023-04-01T11:56:44;11.80;99.90
2327;DHT22;1174;51.588;7.328;2023-04-01T11:59:51;11.80;99.90
2327;DHT22;1174;51.588;7.328;2023-04-01T12:02:29;11.70;99.90
2327;DHT22;1174;51.588;7.328;2023-04-01T12:05:29;11.90;99.90
2327;DHT22;1174;51.588;7.328;2023-04-01T12:08:13;12.00;99.90
2327;DHT22;1174;51.588;7.328;2023-04-01T12:10:48;11.90;99.90
2327;DHT22;1174;51.588;7.328;2023-04-01T12:13:28;12.00;99.90
2327;DHT22;1174;51.588;7.328;2023-04-01T12:16:12;11.90;99.90
2327;DHT22;1174;51.588;7.328;2023-04-01T12:18:43;11.90;99.90
2327;DHT22;1174;51.588;7.328;2023-04-01T12:21:21;11.90;99.90
2327;DHT22;1174;51.588;7.328;2023-04-01T12:27:14;11.90;99.90
2327;DHT22;1174;51.588;7.328;2023-04-01T12:30:01;11.90;99.90
2327;DHT22;1174;51.588;7.328;2023-04-01T12:32:37;11.90;99.90
2327;DHT22;1174;51.588;7.328;2023-04-01T12:35:22;11.80;99.90
2327;DHT22;1174;51.588;7.328;2023-04-01T12:38:13;11.70;99.90
2327;DHT22;1174;51.588;7.328;2023-04-01T12:40:57;11.70;99.90
2327;DHT22;1174;51.588;7.328;2023-04-01T12:43:58;11.70;99.90
2327;DHT22;1174;51.588;7.328;2023-04-01T12:46:31;11.60;99.90
2327;DHT22;1174;51.588;7.328;2023-04-01T12:49:19;11.80;99.90
2327;DHT22;1174;51.588;7.328;2023-04-01T12:52:11;12.00;99.90
2327;DHT22;1174;51.588;7.328;2023-04-01T12:55:07;11.90;99.90
2327;DHT22;1174;51.588;7.328;2023-04-01T13:00:48;11.90;99.90
2327;DHT22;1174;51.588;7.328;2023-04-01T13:06:28;11.90;99.90
2327;DHT22;1174;51.588;7.328;2023-04-01T13:09:04;11.90;99.90
2327;DHT22;1174;51.588;7.328;2023-04-01T13:11:41;12.00;99.90
2327;DHT22;1174;51.588;7.328;2023-04-01T13:14:38;11.90;99.90
2327;DHT22;1174;51.588;7.328;2023-04-01T13:17:15;12.00;99.90
2327;DHT22;1174;51.588;7.328;2023-04-01T13:19:49;12.10;99.90
2327;DHT22;1174;51.588;7.328;2023-04-01T13:22:22;12.10;99.90
2327;DHT22;1174;51.588;7.328;2023-04-01T13:24:53;12.10;99.90
2327;DHT22;1174;51.588;7.328;2023-04-01T13:27:30;12.10;99.90
2327;DHT22;1174;51.588;7.328;2023-04-01T13:30:16;12.00;99.90
2327;DHT22;1174;51.588;7.328;2023-04-01T13:32:53;12.00;99.90
2327;DHT22;1174;51.588;7.328;2023-04-01T13:35:33;12.00;99.90
2327;DHT22;1174;51.588;7.328;2023-04-01T13:38:13;12.10;99.90
2327;DHT22;1174;51.588;7.328;2023-04-01T13:40:51;12.10;99.90
2327;DHT22;1174;51.588;7.328;2023-04-01T13:43:26;12.00;99.90
2327;DHT22;1174;51.588;7.328;2023-04-01T13:46:09;11.90;99.90
2327;DHT22;1174;51.588;7.328;2023-04-01T13:55:22;11.90;99.90
2327;DHT22;1174;51.588;7.328;2023-04-01T13:58:02;12.00;99.90
2327;DHT22;1174;51.588;7.328;2023-04-01T14:00:49;12.10;99.90
2327;DHT22;1174;51.588;7.328;2023-04-01T14:03:32;12.10;99.90
2327;DHT22;1174;51.588;7.328;2023-04-01T14:06:17;11.90;99.90
2327;DHT22;1174;51.588;7.328;2023-04-01T14:11:53;11.90;99.90
2327;DHT22;1174;51.588;7.328;2023-04-01T14:14:34;12.00;99.90
2327;DHT22;1174;51.588;7.328;2023-04-01T14:17:14;11.90;99.90
2327;DHT22;1174;51.588;7.328;2023-04-01T14:19:58;12.00;99.90
2327;DHT22;1174;51.588;7.328;2023-04-01T14:22:34;11.80;99.90
2327;DHT22;1174;51.588;7.328;2023-04-01T14:25:32;11.70;99.90
2327;DHT22;1174;51.588;7.328;2023-04-01T14:28:12;11.70;99.90
2327;DHT22;1174;51.588;7.328;2023-04-01T14:33:45;11.80;99.90
2327;DHT22;1174;51.588;7.328;2023-04-01T14:36:37;11.80;99.90
2327;DHT22;1174;51.588;7.328;2023-04-01T14:39:18;11.80;99.90
2327;DHT22;1174;51.588;7.328;2023-04-01T14:41:54;11.70;99.90
2327;DHT22;1174;51.588;7.328;2023-04-01T14:44:50;11.70;99.90
2327;DHT22;1174;51.588;7.328;2023-04-01T14:47:46;11.80;99.90
2327;DHT22;1174;51.588;7.328;2023-04-01T14:50:17;11.90;99.90
2327;DHT22;1174;51.588;7.328;2023-04-01T14:52:49;11.90;99.90
2327;DHT22;1174;51.588;7.328;2023-04-01T14:55:27;12.00;99.90
2327;DHT22;1174;51.588;7.328;2023-04-01T14:58:08;12.00;99.90
2327;DHT22;1174;51.588;7.328;2023-04-01T15:01:06;12.20;99.90
2327;DHT22;1174;51.588;7.328;2023-04-01T15:03:39;12.40;99.90
2327;DHT22;1174;51.588;7.328;2023-04-01T15:09:14;12.40;99.90
2327;DHT22;1174;51.588;7.328;2023-04-01T15:11:54;12.30;99.90
2327;DHT22;1174;51.588;7.328;2023-04-01T15:14:39;12.20;99.90
2327;DHT22;1174;51.588;7.328;2023-04-01T15:17:28;12.20;99.90
2327;DHT22;1174;51.588;7.328;2023-04-01T15:20:12;12.30;99.90
2327;DHT22;1174;51.588;7.328;2023-04-01T15:26:04;12.30;99.90
2327;DHT22;1174;51.588;7.328;2023-04-01T15:28:38;12.30;99.90
2327;DHT22;1174;51.588;7.328;2023-04-01T15:31:15;12.40;99.90
2327;DHT22;1174;51.588;7.328;2023-04-01T15:33:55;12.40;99.90
2327;DHT22;1174;51.588;7.328;2023-04-01T15:36:33;12.50;99.90
2327;DHT22;1174;51.588;7.328;2023-04-01T15:39:11;12.30;99.90
2327;DHT22;1174;51.588;7.328;2023-04-01T15:41:47;12.10;99.90
2327;DHT22;1174;51.588;7.328;2023-04-01T15:44:38;12.10;99.90
2327;DHT22;1174;51.588;7.328;2023-04-01T15:47:34;12.00;99.90
2327;DHT22;1174;51.588;7.328;2023-04-01T15:50:26;11.90;99.90
2327;DHT22;1174;51.588;7.328;2023-04-01T15:53:05;12.00;99.90
2327;DHT22;1174;51.588;7.328;2023-04-01T15:55:37;11.90;99.90
2327;DHT22;1174;51.588;7.328;2023-04-01T15:58:30;11.90;99.90
2327;DHT22;1174;51.588;7.328;2023-04-01T16:01:07;11.80;99.90
2327;DHT22;1174;51.588;7.328;2023-04-01T16:03:43;11.90;99.90
2327;DHT22;1174;51.588;7.328;2023-04-01T16:06:33;11.90;99.90
2327;DHT22;1174;51.588;7.328;2023-04-01T16:09:29;11.80;99.90
2327;DHT22;1174;51.588;7.328;2023-04-01T16:12:07;11.90;99.90
2327;DHT22;1174;51.588;7.328;2023-04-01T16:14:43;11.80;99.90
2327;DHT22;1174;51.588;7.328;2023-04-01T16:17:30;11.80;99.90
2327;DHT22;1174;51.588;7.328;2023-04-01T16:20:02;11.80;99.90
2327;DHT22;1174;51.588;7.328;2023-04-01T16:22:45;11.80;99.90
2327;DHT22;1174;51.588;7.328;2023-04-01T16:25:26;11.90;99.90
2327;DHT22;1174;51.588;7.328;2023-04-01T16:28:08;11.90;99.90
2327;DHT22;1174;51.588;7.328;2023-04-01T16:30:44;11.90;99.90
2327;DHT22;1174;51.588;7.328;2023-04-01T16:33:15;11.90;99.90
2327;DHT22;1174;51.588;7.328;2023-04-01T16:35:49;11.90;99.90
2327;DHT22;1174;51.588;7.328;2023-04-01T16:38:25;11.80;99.90
2327;DHT22;1174;51.588;7.328;2023-04-01T16:41:05;11.70;99.90
2327;DHT22;1174;51.588;7.328;2023-04-01T16:43:40;11.70;99.90
2327;DHT22;1174;51.588;7.328;2023-04-01T16:46:22;11.70;99.90
2327;DHT22;1174;51.588;7.328;2023-04-01T16:48:59;11.70;99.90
2327;DHT22;1174;51.588;7.328;2023-04-01T16:51:34;11.70;99.90
2327;DHT22;1174;51.588;7.328;2023-04-01T16:54:13;11.70;99.90
2327;DHT22;1174;51.588;7.328;2023-04-01T16:56:44;11.60;99.90
2327;DHT22;1174;51.588;7.328;2023-04-01T16:59:21;11.70;99.90
2327;DHT22;1174;51.588;7.328;2023-04-01T17:01:53;11.70;99.90
2327;DHT22;1174;51.588;7.328;2023-04-01T17:04:30;11.60;99.90
2327;DHT22;1174;51.588;7.328;2023-04-01T17:07:05;11.60;99.90
2327;DHT22;1174;51.588;7.328;2023-04-01T17:09:48;11.80;99.90
2327;DHT22;1174;51.588;7.328;2023-04-01T17:12:24;11.80;99.90
2327;DHT22;1174;51.588;7.328;2023-04-01T17:15:01;11.80;99.90
2327;DHT22;1174;51.588;7.328;2023-04-01T17:17:38;11.80;99.90
2327;DHT22;1174;51.588;7.328;2023-04-01T17:20:40;11.90;99.90
2327;DHT22;1174;51.588;7.328;2023-04-01T17:23:18;11.90;99.90
2327;DHT22;1174;51.588;7.328;2023-04-01T17:25:59;11.80;99.90
2327;DHT22;1174;51.588;7.328;2023-04-01T17:28:37;11.90;99.90
2327;DHT22;1174;51.588;7.328;2023-04-01T17:31:17;11.90;99.90
2327;DHT22;1174;51.588;7.328;2023-04-01T17:33:56;11.80;99.90
2327;DHT22;1174;51.588;7.328;2023-04-01T17:36:40;11.80;99.90
2327;DHT22;1174;51.588;7.328;2023-04-01T17:39:27;11.90;99.90
2327;DHT22;1174;51.588;7.328;2023-04-01T17:42:04;11.90;99.90
2327;DHT22;1174;51.588;7.328;2023-04-01T17:44:43;11.80;99.90
2327;DHT22;1174;51.588;7.328;2023-04-01T17:47:31;11.80;99.90
2327;DHT22;1174;51.588;7.328;2023-04-01T17:50:14;11.80;99.90
2327;DHT22;1174;51.588;7.328;2023-04-01T17:52:46;11.80;99.90
2327;DHT22;1174;51.588;7.328;2023-04-01T17:58:32;11.80;99.90
2327;DHT22;1174;51.588;7.328;2023-04-01T18:01:11;11.80;99.90
2327;DHT22;1174;51.588;7.328;2023-04-01T18:03:54;11.80;99.90
2327;DHT22;1174;51.588;7.328;2023-04-01T18:06:31;11.80;99.90
2327;DHT22;1174;51.588;7.328;2023-04-01T18:09:06;11.70;99.90
2327;DHT22;1174;51.588;7.328;2023-04-01T18:11:42;11.80;99.90
2327;DHT22;1174;51.588;7.328;2023-04-01T18:17:42;11.80;99.90
2327;DHT22;1174;51.588;7.328;2023-04-01T18:20:31;11.90;99.90
2327;DHT22;1174;51.588;7.328;2023-04-01T18:23:02;12.00;99.90
2327;DHT22;1174;51.588;7.328;2023-04-01T18:25:34;12.00;99.90
2327;DHT22;1174;51.588;7.328;2023-04-01T18:28:19;12.00;99.90
2327;DHT22;1174;51.588;7.328;2023-04-01T18:30:56;11.90;99.90
2327;DHT22;1174;51.588;7.328;2023-04-01T18:33:34;11.90;99.90
2327;DHT22;1174;51.588;7.328;2023-04-01T18:36:15;11.90;99.90
2327;DHT22;1174;51.588;7.328;2023-04-01T18:38:48;12.00;99.90
2327;DHT22;1174;51.588;7.328;2023-04-01T18:41:22;12.00;99.90